sensor_id;sensor_type;location;lat;lon;timestamp;pressure;altitude;pressure_sealevel;temperature;humidity
38718;BME280;24468;52.128;9.278;2023-06-14T00:00:39;100744.47;;;18.49;73.01
38718;BME280;24468;52.128;9.278;2023-06-14T00:03:07;100750.28;;;18.32;75.10
38718;BME280;24468;52.128;9.278;2023-06-14T00:05:36;100748.56;;;18.31;75.46
38718;BME280;24468;52.128;9.278;2023-06-14T00:08:07;100739.91;;;18.37;72.48
38718;BME280;24468;52.128;9.278;2023-06-14T00:10:34;100741.22;;;18.44;70.20
38718;BME280;24468;52.128;9.278;2023-06-14T00:13:02;100751.38;;;18.42;72.88
38718;BME280;24468;52.128;9.278;2023-06-14T00:15:28;100744.94;;;18.43;73.08
38718;BME280;24468;52.128;9.278;2023-06-14T00:17:54;100749.63;;;18.41;73.77
38718;BME280;24468;52.128;9.278;2023-06-14T00:20:20;100747.56;;;18.32;74.77
38718;BME280;24468;52.128;9.278;2023-06-14T00:22:46;100751.97;;;18.21;76.72
38718;BME280;24468;52.128;9.278;2023-06-14T00:25:12;100746.06;;;18.15;76.54
38718;BME280;24468;52.128;9.278;2023-06-14T00:27:37;100756.13;;;18.02;77.35
38718;BME280;24468;52.128;9.278;2023-06-14T00:30:03;100753.97;;;17.94;77.64
38718;BME280;24468;52.128;9.278;2023-06-14T00:32:29;100760.75;;;17.88;78.50
38718;BME280;24468;52.128;9.278;2023-06-14T00:34:55;100754.28;;;17.64;80.18
38718;BME280;24468;52.128;9.278;2023-06-14T00:37:21;100758.41;;;17.69;80.08
38718;BME280;24468;52.128;9.278;2023-06-14T00:39:46;100759.81;;;17.62;82.12
38718;BME280;24468;52.128;9.278;2023-06-14T00:42:24;100765.59;;;17.58;84.14
38718;BME280;24468;52.128;9.278;2023-06-14T00:44:50;100760.81;;;17.61;83.76
38718;BME280;24468;52.128;9.278;2023-06-14T00:47:15;100759.19;;;17.59;81.33
38718;BME280;24468;52.128;9.278;2023-06-14T00:49:41;100765.41;;;17.61;79.79
38718;BME280;24468;52.128;9.278;2023-06-14T00:52:07;100756.03;;;17.25;80.21
38718;BME280;24468;52.128;9.278;2023-06-14T00:54:33;100760.34;;;17.42;80.92
38718;BME280;24468;52.128;9.278;2023-06-14T00:56:58;100764.06;;;17.53;80.81
38718;BME280;24468;52.128;9.278;2023-06-14T00:59:24;100762.88;;;17.58;78.41
38718;BME280;24468;52.128;9.278;2023-06-14T01:01:50;100762.00;;;17.57;78.20
38718;BME280;24468;52.128;9.278;2023-06-14T01:04:16;100768.78;;;17.64;79.76
38718;BME280;24468;52.128;9.278;2023-06-14T01:07:07;100765.72;;;17.56;82.34
38718;BME280;24468;52.128;9.278;2023-06-14T01:15:04;100763.09;;;17.67;75.36
38718;BME280;24468;52.128;9.278;2023-06-14T01:17:30;100764.28;;;17.63;75.53
38718;BME280;24468;52.128;9.278;2023-06-14T01:20:00;100767.78;;;17.65;75.12
38718;BME280;24468;52.128;9.278;2023-06-14T01:22:26;100762.00;;;17.57;76.15
38718;BME280;24468;52.128;9.278;2023-06-14T01:24:53;100770.50;;;17.40;78.30
38718;BME280;24468;52.128;9.278;2023-06-14T01:27:23;100768.72;;;17.39;78.61
38718;BME280;24468;52.128;9.278;2023-06-14T01:29:51;100770.94;;;17.46;78.42
38718;BME280;24468;52.128;9.278;2023-06-14T01:32:24;100769.63;;;17.39;79.81
38718;BME280;24468;52.128;9.278;2023-06-14T01:34:51;100776.03;;;17.38;79.21
38718;BME280;24468;52.128;9.278;2023-06-14T01:37:19;100764.13;;;17.26;79.94
38718;BME280;24468;52.128;9.278;2023-06-14T01:39:45;100770.53;;;17.13;82.90
38718;BME280;24468;52.128;9.278;2023-06-14T01:42:13;100777.00;;;17.24;85.36
38718;BME280;24468;52.128;9.278;2023-06-14T01:44:41;100777.00;;;16.97;85.97
38718;BME280;24468;52.128;9.278;2023-06-14T01:47:08;100777.94;;;16.83;87.92
38718;BME280;24468;52.128;9.278;2023-06-14T01:49:34;100785.69;;;16.48;90.80
38718;BME280;24468;52.128;9.278;2023-06-14T01:52:01;100780.16;;;16.50;92.93
38718;BME280;24468;52.128;9.278;2023-06-14T01:54:26;100783.47;;;16.40;92.72
38718;BME280;24468;52.128;9.278;2023-06-14T01:56:52;100779.97;;;16.38;93.63
38718;BME280;24468;52.128;9.278;2023-06-14T01:59:18;100775.56;;;16.50;92.56
38718;BME280;24468;52.128;9.278;2023-06-14T02:01:44;100778.41;;;16.49;92.34
38718;BME280;24468;52.128;9.278;2023-06-14T02:04:11;100772.47;;;16.42;93.09
38718;BME280;24468;52.128;9.278;2023-06-14T02:06:37;100783.28;;;16.43;92.74
38718;BME280;24468;52.128;9.278;2023-06-14T02:09:03;100780.38;;;16.32;93.35
38718;BME280;24468;52.128;9.278;2023-06-14T02:11:28;100785.22;;;16.41;93.54
38718;BME280;24468;52.128;9.278;2023-06-14T02:13:55;100786.94;;;16.42;92.44
38718;BME280;24468;52.128;9.278;2023-06-14T02:16:21;100782.28;;;16.44;91.87
38718;BME280;24468;52.128;9.278;2023-06-14T02:18:47;100786.00;;;16.43;91.58
38718;BME280;24468;52.128;9.278;2023-06-14T02:21:14;100788.53;;;16.47;91.87
38718;BME280;24468;52.128;9.278;2023-06-14T02:23:39;100788.13;;;16.38;91.65
38718;BME280;24468;52.128;9.278;2023-06-14T02:26:05;100794.19;;;16.29;92.67
38718;BME280;24468;52.128;9.278;2023-06-14T02:28:31;100793.97;;;16.47;91.46
38718;BME280;24468;52.128;9.278;2023-06-14T02:30:56;100794.44;;;16.53;89.49
38718;BME280;24468;52.128;9.278;2023-06-14T02:33:22;100797.66;;;16.60;93.08
38718;BME280;24468;52.128;9.278;2023-06-14T02:35:47;100797.28;;;16.52;90.48
38718;BME280;24468;52.128;9.278;2023-06-14T02:38:13;100805.53;;;16.50;90.97
38718;BME280;24468;52.128;9.278;2023-06-14T02:40:38;100811.28;;;16.45;91.57
38718;BME280;24468;52.128;9.278;2023-06-14T02:43:04;100812.06;;;16.19;93.16
38718;BME280;24468;52.128;9.278;2023-06-14T02:45:30;100813.22;;;16.15;94.64
38718;BME280;24468;52.128;9.278;2023-06-14T02:47:55;100819.47;;;16.17;94.85
38718;BME280;24468;52.128;9.278;2023-06-14T02:50:21;100816.13;;;16.26;95.96
38718;BME280;24468;52.128;9.278;2023-06-14T02:52:47;100820.22;;;16.33;93.71
38718;BME280;24468;52.128;9.278;2023-06-14T02:55:12;100826.66;;;16.32;93.76
38718;BME280;24468;52.128;9.278;2023-06-14T02:57:38;100819.44;;;16.31;93.26
38718;BME280;24468;52.128;9.278;2023-06-14T03:00:06;100827.22;;;16.23;94.73
38718;BME280;24468;52.128;9.278;2023-06-14T03:02:35;100824.31;;;16.26;94.82
38718;BME280;24468;52.128;9.278;2023-06-14T03:05:00;100814.41;;;16.25;95.70
38718;BME280;24468;52.128;9.278;2023-06-14T03:07:28;100826.75;;;16.16;96.42
38718;BME280;24468;52.128;9.278;2023-06-14T03:09:55;100825.88;;;16.30;96.80
38718;BME280;24468;52.128;9.278;2023-06-14T03:12:20;100818.88;;;16.26;94.78
38718;BME280;24468;52.128;9.278;2023-06-14T03:14:46;100829.94;;;16.23;95.37
38718;BME280;24468;52.128;9.278;2023-06-14T03:17:12;100824.31;;;16.12;97.87
38718;BME280;24468;52.128;9.278;2023-06-14T03:19:37;100826.47;;;16.21;95.70
38718;BME280;24468;52.128;9.278;2023-06-14T03:22:03;100823.63;;;16.22;95.49
38718;BME280;24468;52.128;9.278;2023-06-14T03:24:29;100828.00;;;16.25;95.34
38718;BME280;24468;52.128;9.278;2023-06-14T03:26:54;100834.25;;;16.27;94.83
38718;BME280;24468;52.128;9.278;2023-06-14T03:29:20;100832.31;;;16.29;95.01
38718;BME280;24468;52.128;9.278;2023-06-14T03:32:02;100824.91;;;16.17;96.98
38718;BME280;24468;52.128;9.278;2023-06-14T03:34:27;100832.78;;;16.21;97.82
38718;BME280;24468;52.128;9.278;2023-06-14T03:36:53;100836.78;;;16.16;99.06
38718;BME280;24468;52.128;9.278;2023-06-14T03:39:19;100840.44;;;16.15;99.35
38718;BME280;24468;52.128;9.278;2023-06-14T03:41:45;100834.53;;;16.08;100.00
38718;BME280;24468;52.128;9.278;2023-06-14T03:44:11;100836.06;;;15.98;100.00
38718;BME280;24468;52.128;9.278;2023-06-14T03:46:36;100848.22;;;16.07;100.00
38718;BME280;24468;52.128;9.278;2023-06-14T03:49:02;100845.34;;;16.24;99.87
38718;BME280;24468;52.128;9.278;2023-06-14T03:51:28;100847.28;;;16.22;100.00
38718;BME280;24468;52.128;9.278;2023-06-14T03:53:54;100860.69;;;16.25;100.00
38718;BME280;24468;52.128;9.278;2023-06-14T03:56:21;100849.78;;;16.25;100.00
38718;BME280;24468;52.128;9.278;2023-06-14T03:58:46;100853.31;;;16.27;100.00
38718;BME280;24468;52.128;9.278;2023-06-14T04:01:12;100857.75;;;16.14;100.00
38718;BME280;24468;52.128;9.278;2023-06-14T04:03:38;100862.03;;;16.18;100.00
38718;BME280;24468;52.128;9.278;2023-06-14T04:06:06;100870.31;;;16.16;100.00
38718;BME280;24468;52.128;9.278;2023-06-14T04:08:31;100869.63;;;16.27;100.00
38718;BME280;24468;52.128;9.278;2023-06-14T04:10:57;100863.22;;;16.28;100.00
38718;BME280;24468;52.128;9.278;2023-06-14T04:13:23;100869.34;;;16.32;100.00
38718;BME280;24468;52.128;9.278;2023-06-14T04:15:48;100868.47;;;16.17;100.00
38718;BME280;24468;52.128;9.278;2023-06-14T04:18:14;100873.69;;;16.20;100.00
38718;BME280;24468;52.128;9.278;2023-06-14T04:20:39;100874.69;;;16.05;100.00
38718;BME280;24468;52.128;9.278;2023-06-14T04:23:17;100878.53;;;16.00;100.00
38718;BME280;24468;52.128;9.278;2023-06-14T04:25:46;100881.13;;;16.32;100.00
38718;BME280;24468;52.128;9.278;2023-06-14T04:28:13;100885.78;;;16.73;98.49
38718;BME280;24468;52.128;9.278;2023-06-14T04:30:42;100886.06;;;16.83;98.48
38718;BME280;24468;52.128;9.278;2023-06-14T04:33:07;100886.94;;;16.83;98.77
38718;BME280;24468;52.128;9.278;2023-06-14T04:35:33;100892.50;;;16.82;99.26
38718;BME280;24468;52.128;9.278;2023-06-14T04:38:01;100895.22;;;17.23;98.79
38718;BME280;24468;52.128;9.278;2023-06-14T04:40:32;100891.44;;;17.26;96.00
38718;BME280;24468;52.128;9.278;2023-06-14T04:42:59;100889.56;;;17.26;95.49
38718;BME280;24468;52.128;9.278;2023-06-14T04:45:24;100896.31;;;17.21;96.56
38718;BME280;24468;52.128;9.278;2023-06-14T04:47:59;100896.03;;;17.11;96.37
38718;BME280;24468;52.128;9.278;2023-06-14T04:50:25;100902.91;;;17.31;97.48
38718;BME280;24468;52.128;9.278;2023-06-14T04:52:52;100900.69;;;17.63;94.92
38718;BME280;24468;52.128;9.278;2023-06-14T04:55:18;100903.69;;;17.73;93.76
38718;BME280;24468;52.128;9.278;2023-06-14T04:57:45;100905.63;;;17.58;94.33
38718;BME280;24468;52.128;9.278;2023-06-14T05:00:11;100914.91;;;17.83;91.67
38718;BME280;24468;52.128;9.278;2023-06-14T05:02:37;100911.59;;;17.23;93.78
38718;BME280;24468;52.128;9.278;2023-06-14T05:05:04;100908.53;;;17.55;93.43
38718;BME280;24468;52.128;9.278;2023-06-14T05:07:32;100905.84;;;17.28;95.43
38718;BME280;24468;52.128;9.278;2023-06-14T05:09:59;100900.63;;;18.17;91.03
38718;BME280;24468;52.128;9.278;2023-06-14T05:12:24;100907.81;;;17.66;92.06
38718;BME280;24468;52.128;9.278;2023-06-14T05:14:50;100912.91;;;17.85;88.92
38718;BME280;24468;52.128;9.278;2023-06-14T05:17:15;100909.78;;;17.64;92.57
38718;BME280;24468;52.128;9.278;2023-06-14T05:19:42;100910.50;;;17.53;90.54
38718;BME280;24468;52.128;9.278;2023-06-14T05:22:08;100910.81;;;18.41;90.40
38718;BME280;24468;52.128;9.278;2023-06-14T05:24:33;100907.31;;;18.13;89.79
38718;BME280;24468;52.128;9.278;2023-06-14T05:26:59;100914.06;;;18.33;85.44
38718;BME280;24468;52.128;9.278;2023-06-14T05:29:24;100917.34;;;18.26;87.83
38718;BME280;24468;52.128;9.278;2023-06-14T05:31:51;100927.25;;;17.74;89.61
38718;BME280;24468;52.128;9.278;2023-06-14T05:34:16;100920.28;;;18.22;89.72
38718;BME280;24468;52.128;9.278;2023-06-14T05:36:42;100916.25;;;18.28;86.49
38718;BME280;24468;52.128;9.278;2023-06-14T05:39:07;100929.34;;;18.23;88.37
38718;BME280;24468;52.128;9.278;2023-06-14T05:41:33;100928.50;;;18.22;87.08
38718;BME280;24468;52.128;9.278;2023-06-14T05:43:59;100925.22;;;18.30;85.67
38718;BME280;24468;52.128;9.278;2023-06-14T05:46:25;100934.59;;;18.13;86.35
38718;BME280;24468;52.128;9.278;2023-06-14T05:48:52;100928.72;;;18.71;84.61
38718;BME280;24468;52.128;9.278;2023-06-14T05:51:18;100928.63;;;18.21;85.30
38718;BME280;24468;52.128;9.278;2023-06-14T05:53:53;100936.03;;;18.32;86.66
38718;BME280;24468;52.128;9.278;2023-06-14T05:56:19;100937.59;;;17.96;89.96
38718;BME280;24468;52.128;9.278;2023-06-14T05:58:46;100935.16;;;18.18;90.60
38718;BME280;24468;52.128;9.278;2023-06-14T06:01:11;100936.91;;;18.32;87.10
38718;BME280;24468;52.128;9.278;2023-06-14T06:03:38;100945.31;;;18.16;88.08
38718;BME280;24468;52.128;9.278;2023-06-14T06:06:05;100941.81;;;18.40;88.26
38718;BME280;24468;52.128;9.278;2023-06-14T06:08:30;100946.78;;;17.95;88.96
38718;BME280;24468;52.128;9.278;2023-06-14T06:10:56;100938.50;;;17.96;96.59
38718;BME280;24468;52.128;9.278;2023-06-14T06:13:22;100936.38;;;18.27;90.27
38718;BME280;24468;52.128;9.278;2023-06-14T06:15:48;100946.44;;;18.91;86.33
38718;BME280;24468;52.128;9.278;2023-06-14T06:18:14;100934.06;;;18.34;88.08
38718;BME280;24468;52.128;9.278;2023-06-14T06:20:39;100949.25;;;18.89;88.35
38718;BME280;24468;52.128;9.278;2023-06-14T06:23:05;100952.19;;;19.12;84.90
38718;BME280;24468;52.128;9.278;2023-06-14T06:25:30;100944.69;;;19.26;82.80
38718;BME280;24468;52.128;9.278;2023-06-14T06:27:57;100951.38;;;19.22;85.26
38718;BME280;24468;52.128;9.278;2023-06-14T06:30:23;100954.72;;;19.63;83.45
38718;BME280;24468;52.128;9.278;2023-06-14T06:32:48;100963.94;;;18.75;82.35
38718;BME280;24468;52.128;9.278;2023-06-14T06:35:14;100964.78;;;19.01;84.59
38718;BME280;24468;52.128;9.278;2023-06-14T06:37:41;100966.19;;;19.07;83.71
38718;BME280;24468;52.128;9.278;2023-06-14T06:40:08;100966.56;;;18.90;83.49
38718;BME280;24468;52.128;9.278;2023-06-14T06:42:34;100960.28;;;19.00;84.92
38718;BME280;24468;52.128;9.278;2023-06-14T06:45:00;100968.28;;;18.65;85.83
38718;BME280;24468;52.128;9.278;2023-06-14T06:47:26;100971.13;;;19.15;81.58
38718;BME280;24468;52.128;9.278;2023-06-14T06:49:52;100965.56;;;19.03;83.76
38718;BME280;24468;52.128;9.278;2023-06-14T06:52:18;100976.59;;;19.15;84.25
38718;BME280;24468;52.128;9.278;2023-06-14T06:54:43;100974.00;;;19.37;83.16
38718;BME280;24468;52.128;9.278;2023-06-14T06:57:09;100965.16;;;19.33;82.11
38718;BME280;24468;52.128;9.278;2023-06-14T06:59:36;100969.41;;;19.38;83.42
38718;BME280;24468;52.128;9.278;2023-06-14T07:02:01;100972.09;;;19.50;82.86
38718;BME280;24468;52.128;9.278;2023-06-14T07:04:27;100976.22;;;19.19;83.01
38718;BME280;24468;52.128;9.278;2023-06-14T07:06:52;100982.69;;;19.55;81.85
38718;BME280;24468;52.128;9.278;2023-06-14T07:09:18;100968.59;;;19.48;80.76
38718;BME280;24468;52.128;9.278;2023-06-14T07:11:46;100970.13;;;19.76;79.22
38718;BME280;24468;52.128;9.278;2023-06-14T07:14:12;100976.78;;;19.85;77.42
38718;BME280;24468;52.128;9.278;2023-06-14T07:16:38;100982.56;;;19.69;78.37
38718;BME280;24468;52.128;9.278;2023-06-14T07:19:04;100988.63;;;19.86;75.52
38718;BME280;24468;52.128;9.278;2023-06-14T07:21:30;100985.19;;;19.95;74.54
38718;BME280;24468;52.128;9.278;2023-06-14T07:23:56;100989.53;;;19.97;76.07
38718;BME280;24468;52.128;9.278;2023-06-14T07:26:22;100988.38;;;19.89;75.97
38718;BME280;24468;52.128;9.278;2023-06-14T07:28:48;100991.31;;;19.62;79.22
38718;BME280;24468;52.128;9.278;2023-06-14T07:31:14;100982.50;;;19.82;75.90
38718;BME280;24468;52.128;9.278;2023-06-14T07:33:41;100979.22;;;20.01;75.47
38718;BME280;24468;52.128;9.278;2023-06-14T07:36:07;100977.94;;;20.29;74.92
38718;BME280;24468;52.128;9.278;2023-06-14T07:38:34;100978.34;;;20.94;69.81
38718;BME280;24468;52.128;9.278;2023-06-14T07:41:00;100980.16;;;20.59;71.79
38718;BME280;24468;52.128;9.278;2023-06-14T07:43:26;100980.06;;;21.51;66.75
38718;BME280;24468;52.128;9.278;2023-06-14T07:45:51;100979.44;;;22.23;62.12
38718;BME280;24468;52.128;9.278;2023-06-14T07:48:18;100978.56;;;20.57;70.28
38718;BME280;24468;52.128;9.278;2023-06-14T07:50:43;100985.78;;;20.58;71.87
38718;BME280;24468;52.128;9.278;2023-06-14T07:53:09;100984.09;;;20.44;73.03
38718;BME280;24468;52.128;9.278;2023-06-14T07:55:34;100990.06;;;20.96;70.05
38718;BME280;24468;52.128;9.278;2023-06-14T07:58:03;100989.03;;;21.30;67.93
38718;BME280;24468;52.128;9.278;2023-06-14T08:00:29;100990.56;;;21.01;68.15
38718;BME280;24468;52.128;9.278;2023-06-14T08:02:54;100991.03;;;21.06;68.15
38718;BME280;24468;52.128;9.278;2023-06-14T08:05:25;100995.03;;;21.13;67.76
38718;BME280;24468;52.128;9.278;2023-06-14T08:07:51;100987.91;;;20.54;69.64
38718;BME280;24468;52.128;9.278;2023-06-14T08:10:17;100992.66;;;20.97;67.63
38718;BME280;24468;52.128;9.278;2023-06-14T08:12:42;100983.88;;;19.88;74.12
38718;BME280;24468;52.128;9.278;2023-06-14T08:15:08;100985.56;;;20.02;75.88
38718;BME280;24468;52.128;9.278;2023-06-14T08:17:34;100979.06;;;21.18;69.22
38718;BME280;24468;52.128;9.278;2023-06-14T08:19:59;100975.56;;;21.61;65.98
38718;BME280;24468;52.128;9.278;2023-06-14T08:22:25;100978.88;;;20.52;70.10
38718;BME280;24468;52.128;9.278;2023-06-14T08:24:51;100974.19;;;21.33;66.31
38718;BME280;24468;52.128;9.278;2023-06-14T08:27:18;100984.06;;;21.24;64.78
38718;BME280;24468;52.128;9.278;2023-06-14T08:29:43;100977.56;;;21.37;65.00
38718;BME280;24468;52.128;9.278;2023-06-14T08:32:09;100982.69;;;21.85;63.67
38718;BME280;24468;52.128;9.278;2023-06-14T08:34:35;100987.28;;;21.29;66.46
38718;BME280;24468;52.128;9.278;2023-06-14T08:37:01;100982.31;;;21.35;64.36
38718;BME280;24468;52.128;9.278;2023-06-14T08:39:27;100992.03;;;21.39;63.08
38718;BME280;24468;52.128;9.278;2023-06-14T08:41:53;100985.66;;;21.93;62.97
38718;BME280;24468;52.128;9.278;2023-06-14T08:44:20;100990.31;;;22.25;62.19
38718;BME280;24468;52.128;9.278;2023-06-14T08:46:48;100987.16;;;21.53;62.55
38718;BME280;24468;52.128;9.278;2023-06-14T08:49:16;100981.50;;;21.66;62.34
38718;BME280;24468;52.128;9.278;2023-06-14T08:51:43;100988.31;;;21.94;62.63
38718;BME280;24468;52.128;9.278;2023-06-14T08:54:11;100984.47;;;21.86;61.44
38718;BME280;24468;52.128;9.278;2023-06-14T08:56:38;100990.28;;;21.26;63.61
38718;BME280;24468;52.128;9.278;2023-06-14T08:59:07;100988.53;;;21.59;62.48
38718;BME280;24468;52.128;9.278;2023-06-14T09:01:34;100982.59;;;22.07;60.39
38718;BME280;24468;52.128;9.278;2023-06-14T09:04:00;100991.19;;;22.67;59.45
38718;BME280;24468;52.128;9.278;2023-06-14T09:06:27;100980.13;;;22.36;58.16
38718;BME280;24468;52.128;9.278;2023-06-14T09:08:55;100989.75;;;21.66;61.36
38718;BME280;24468;52.128;9.278;2023-06-14T09:11:23;100985.75;;;22.77;58.32
38718;BME280;24468;52.128;9.278;2023-06-14T09:13:49;100986.22;;;22.82;56.91
38718;BME280;24468;52.128;9.278;2023-06-14T09:16:16;100987.16;;;23.23;55.68
38718;BME280;24468;52.128;9.278;2023-06-14T09:18:47;100988.81;;;23.04;56.64
38718;BME280;24468;52.128;9.278;2023-06-14T09:21:17;100993.03;;;23.49;55.85
38718;BME280;24468;52.128;9.278;2023-06-14T09:23:47;100998.63;;;22.97;57.89
38718;BME280;24468;52.128;9.278;2023-06-14T09:26:16;100994.06;;;23.17;56.01
38718;BME280;24468;52.128;9.278;2023-06-14T09:28:43;100996.78;;;23.07;54.93
38718;BME280;24468;52.128;9.278;2023-06-14T09:31:14;101002.50;;;23.25;55.42
38718;BME280;24468;52.128;9.278;2023-06-14T09:33:49;100997.34;;;22.59;54.67
38718;BME280;24468;52.128;9.278;2023-06-14T09:36:22;101001.22;;;23.29;55.26
38718;BME280;24468;52.128;9.278;2023-06-14T09:38:59;100997.28;;;23.22;54.08
38718;BME280;24468;52.128;9.278;2023-06-14T09:41:39;100995.25;;;23.15;54.71
38718;BME280;24468;52.128;9.278;2023-06-14T09:44:08;101000.47;;;23.27;55.66
38718;BME280;24468;52.128;9.278;2023-06-14T09:46:35;101002.63;;;22.93;55.58
38718;BME280;24468;52.128;9.278;2023-06-14T09:49:02;100996.34;;;22.39;56.71
38718;BME280;24468;52.128;9.278;2023-06-14T09:51:28;100997.81;;;22.23;57.47
38718;BME280;24468;52.128;9.278;2023-06-14T09:54:02;100999.28;;;22.27;55.87
38718;BME280;24468;52.128;9.278;2023-06-14T09:56:38;100989.81;;;23.34;54.10
38718;BME280;24468;52.128;9.278;2023-06-14T09:59:06;100998.50;;;22.36;57.46
38718;BME280;24468;52.128;9.278;2023-06-14T10:01:42;101007.13;;;21.67;58.10
38718;BME280;24468;52.128;9.278;2023-06-14T10:04:10;100998.66;;;21.91;59.51
38718;BME280;24468;52.128;9.278;2023-06-14T10:06:40;100997.97;;;21.78;59.46
38718;BME280;24468;52.128;9.278;2023-06-14T10:09:10;100992.44;;;21.89;58.62
38718;BME280;24468;52.128;9.278;2023-06-14T10:11:36;100988.84;;;22.09;59.90
38718;BME280;24468;52.128;9.278;2023-06-14T10:14:05;100990.56;;;21.89;58.30
38718;BME280;24468;52.128;9.278;2023-06-14T10:16:48;100987.97;;;22.09;60.92
38718;BME280;24468;52.128;9.278;2023-06-14T10:19:34;100988.72;;;22.11;60.31
38718;BME280;24468;52.128;9.278;2023-06-14T10:22:15;100982.41;;;22.52;57.58
38718;BME280;24468;52.128;9.278;2023-06-14T10:24:45;100985.19;;;21.88;60.71
38718;BME280;24468;52.128;9.278;2023-06-14T10:27:15;100987.63;;;22.97;57.28
38718;BME280;24468;52.128;9.278;2023-06-14T10:32:18;100984.34;;;23.13;55.44
38718;BME280;24468;52.128;9.278;2023-06-14T10:34:44;100986.03;;;23.35;53.67
38718;BME280;24468;52.128;9.278;2023-06-14T10:37:14;100976.31;;;24.01;52.80
38718;BME280;24468;52.128;9.278;2023-06-14T10:39:44;100975.81;;;23.16;52.04
38718;BME280;24468;52.128;9.278;2023-06-14T10:42:14;100975.94;;;23.45;52.79
38718;BME280;24468;52.128;9.278;2023-06-14T10:44:50;100969.53;;;22.53;52.59
38718;BME280;24468;52.128;9.278;2023-06-14T10:47:33;100965.22;;;23.62;51.59
38718;BME280;24468;52.128;9.278;2023-06-14T10:50:07;100958.16;;;24.08;50.36
38718;BME280;24468;52.128;9.278;2023-06-14T10:52:42;100957.72;;;24.32;50.92
38718;BME280;24468;52.128;9.278;2023-06-14T10:55:14;100961.34;;;24.13;50.12
38718;BME280;24468;52.128;9.278;2023-06-14T10:57:42;100952.56;;;24.76;49.67
38718;BME280;24468;52.128;9.278;2023-06-14T11:00:10;100954.69;;;24.25;48.57
38718;BME280;24468;52.128;9.278;2023-06-14T11:05:57;100952.06;;;24.53;49.96
38718;BME280;24468;52.128;9.278;2023-06-14T11:11:23;100945.03;;;24.68;48.39
38718;BME280;24468;52.128;9.278;2023-06-14T11:13:51;100953.97;;;24.90;48.63
38718;BME280;24468;52.128;9.278;2023-06-14T11:16:17;100951.13;;;25.09;46.97
38718;BME280;24468;52.128;9.278;2023-06-14T11:18:46;100948.09;;;24.75;48.37
38718;BME280;24468;52.128;9.278;2023-06-14T11:21:16;100952.63;;;23.59;48.88
38718;BME280;24468;52.128;9.278;2023-06-14T11:23:52;100945.34;;;25.12;48.44
38718;BME280;24468;52.128;9.278;2023-06-14T11:26:28;100940.59;;;24.18;49.46
38718;BME280;24468;52.128;9.278;2023-06-14T11:29:01;100938.88;;;23.88;49.57
38718;BME280;24468;52.128;9.278;2023-06-14T11:31:27;100950.94;;;24.07;49.48
38718;BME280;24468;52.128;9.278;2023-06-14T11:33:55;100941.47;;;24.38;49.21
38718;BME280;24468;52.128;9.278;2023-06-14T11:36:23;100943.97;;;23.73;50.30
38718;BME280;24468;52.128;9.278;2023-06-14T11:38:48;100937.84;;;23.70;49.59
38718;BME280;24468;52.128;9.278;2023-06-14T11:41:14;100928.56;;;24.96;47.82
38718;BME280;24468;52.128;9.278;2023-06-14T11:43:40;100936.97;;;24.18;46.91
38718;BME280;24468;52.128;9.278;2023-06-14T11:46:13;100932.31;;;24.95;47.73
38718;BME280;24468;52.128;9.278;2023-06-14T11:48:42;100926.50;;;25.53;45.93
38718;BME280;24468;52.128;9.278;2023-06-14T11:51:08;100936.31;;;25.10;46.68
38718;BME280;24468;52.128;9.278;2023-06-14T11:53:34;100933.44;;;25.02;46.77
38718;BME280;24468;52.128;9.278;2023-06-14T11:56:00;100933.88;;;25.07;47.25
38718;BME280;24468;52.128;9.278;2023-06-14T11:58:26;100929.75;;;25.11;46.88
38718;BME280;24468;52.128;9.278;2023-06-14T12:00:53;100932.41;;;24.75;47.36
38718;BME280;24468;52.128;9.278;2023-06-14T12:03:24;100937.03;;;23.89;47.83
38718;BME280;24468;52.128;9.278;2023-06-14T12:06:15;100932.72;;;24.43;47.53
38718;BME280;24468;52.128;9.278;2023-06-14T12:08:43;100932.00;;;24.98;46.56
38718;BME280;24468;52.128;9.278;2023-06-14T12:11:12;100929.22;;;25.99;44.88
38718;BME280;24468;52.128;9.278;2023-06-14T12:13:39;100918.53;;;25.22;45.78
38718;BME280;24468;52.128;9.278;2023-06-14T12:16:12;100915.88;;;26.38;44.14
38718;BME280;24468;52.128;9.278;2023-06-14T12:18:39;100917.78;;;26.55;44.46
38718;BME280;24468;52.128;9.278;2023-06-14T12:21:07;100924.69;;;25.06;45.68
38718;BME280;24468;52.128;9.278;2023-06-14T12:23:59;100931.19;;;24.02;47.14
38718;BME280;24468;52.128;9.278;2023-06-14T12:26:25;100936.97;;;24.18;48.06
38718;BME280;24468;52.128;9.278;2023-06-14T12:28:52;100933.94;;;24.21;47.64
38718;BME280;24468;52.128;9.278;2023-06-14T12:31:17;100927.50;;;25.34;46.08
38718;BME280;24468;52.128;9.278;2023-06-14T12:33:44;100928.03;;;25.10;45.15
38718;BME280;24468;52.128;9.278;2023-06-14T12:36:11;100919.72;;;24.45;47.64
38718;BME280;24468;52.128;9.278;2023-06-14T12:38:37;100925.34;;;24.53;47.11
38718;BME280;24468;52.128;9.278;2023-06-14T12:41:03;100918.78;;;25.57;46.50
38718;BME280;24468;52.128;9.278;2023-06-14T12:43:29;100927.59;;;25.42;45.51
38718;BME280;24468;52.128;9.278;2023-06-14T12:45:55;100920.97;;;25.53;44.35
38718;BME280;24468;52.128;9.278;2023-06-14T12:48:21;100931.13;;;25.07;45.81
38718;BME280;24468;52.128;9.278;2023-06-14T12:50:47;100921.91;;;25.44;44.73
38718;BME280;24468;52.128;9.278;2023-06-14T12:53:13;100929.69;;;24.66;46.12
38718;BME280;24468;52.128;9.278;2023-06-14T12:55:39;100938.59;;;25.24;45.90
38718;BME280;24468;52.128;9.278;2023-06-14T12:58:04;100920.63;;;24.73;46.68
38718;BME280;24468;52.128;9.278;2023-06-14T13:00:30;100926.41;;;25.17;46.23
38718;BME280;24468;52.128;9.278;2023-06-14T13:02:57;100921.47;;;26.02;44.81
38718;BME280;24468;52.128;9.278;2023-06-14T13:05:23;100916.97;;;26.45;44.42